createdAt,value
2023-05-22T00:00:44.786Z,2.90
2023-05-22T00:01:44.777Z,3.10
2023-05-22T00:02:44.855Z,3.10
2023-05-22T00:03:44.779Z,2.90
2023-05-22T00:04:44.811Z,3.10
2023-05-22T00:05:44.766Z,2.90
2023-05-22T00:06:44.762Z,3.00
2023-05-22T00:07:44.759Z,2.90
2023-05-22T00:08:44.753Z,2.90
2023-05-22T00:09:44.756Z,2.70
2023-05-22T00:10:44.754Z,2.90
2023-05-22T00:11:44.746Z,2.80
2023-05-22T00:12:44.754Z,2.90
2023-05-22T00:13:44.741Z,2.80
2023-05-22T00:14:44.756Z,3.00
2023-05-22T00:15:44.735Z,2.80
2023-05-22T00:16:44.763Z,2.70
2023-05-22T00:17:44.760Z,2.90
2023-05-22T00:18:44.820Z,2.70
2023-05-22T00:19:44.722Z,2.90
2023-05-22T00:20:44.718Z,2.70
2023-05-22T00:21:44.722Z,2.70
2023-05-22T00:22:44.718Z,2.60
2023-05-22T00:23:44.715Z,2.60
2023-05-22T00:24:44.710Z,2.70
2023-05-22T00:25:44.712Z,2.90
2023-05-22T00:26:44.723Z,2.90
2023-05-22T00:27:44.727Z,3.00
2023-05-22T00:28:44.694Z,3.00
2023-05-22T00:29:44.693Z,3.10
2023-05-22T00:30:44.719Z,3.00
2023-05-22T00:31:44.689Z,2.90
2023-05-22T00:32:44.765Z,3.10
2023-05-22T00:33:44.699Z,2.90
2023-05-22T00:34:44.803Z,2.80
2023-05-22T00:35:44.686Z,3.20
2023-05-22T00:36:44.682Z,2.80
2023-05-22T00:37:44.671Z,2.80
2023-05-22T00:38:44.672Z,2.80
2023-05-22T00:39:44.664Z,3.00
2023-05-22T00:40:44.660Z,3.00
2023-05-22T00:41:44.688Z,2.70
2023-05-22T00:42:44.658Z,2.80
2023-05-22T00:43:44.651Z,2.50
2023-05-22T00:44:44.656Z,2.80
2023-05-22T00:45:44.735Z,2.60
2023-05-22T00:46:44.713Z,3.10
2023-05-22T00:47:44.688Z,2.80
2023-05-22T00:48:44.639Z,2.70
2023-05-22T00:49:44.635Z,2.80
2023-05-22T00:50:44.637Z,3.00
2023-05-22T00:51:44.626Z,2.80
2023-05-22T00:52:44.625Z,3.00
2023-05-22T00:53:44.622Z,2.90
2023-05-22T00:54:44.628Z,2.90
2023-05-22T00:55:44.615Z,3.00
2023-05-22T00:56:44.612Z,3.00
2023-05-22T00:57:44.612Z,3.00
2023-05-22T00:58:44.611Z,2.90
2023-05-22T00:59:44.612Z,2.80
2023-05-22T01:00:44.594Z,2.90
2023-05-22T01:01:44.665Z,2.90
2023-05-22T01:02:44.688Z,3.10
2023-05-22T01:03:44.748Z,3.00
2023-05-22T01:04:44.584Z,2.80
2023-05-22T01:05:44.579Z,2.90
2023-05-22T01:06:44.576Z,2.60
2023-05-22T01:07:44.574Z,3.00
2023-05-22T01:08:44.587Z,3.00
2023-05-22T01:09:44.569Z,3.00
2023-05-22T01:10:44.561Z,3.00
2023-05-22T01:11:44.582Z,2.90
2023-05-22T01:12:44.556Z,2.90
2023-05-22T01:13:44.553Z,3.00
2023-05-22T01:14:44.552Z,2.80
2023-05-22T01:15:44.542Z,3.10
2023-05-22T01:16:44.622Z,3.20
2023-05-22T01:17:44.614Z,3.00
2023-05-22T01:18:44.566Z,3.00
2023-05-22T01:19:44.532Z,3.00
2023-05-22T01:20:45.317Z,3.00
2023-05-22T01:21:44.531Z,3.00
2023-05-22T01:22:44.520Z,3.00
2023-05-22T01:23:44.523Z,3.00
2023-05-22T01:24:44.512Z,2.80
2023-05-22T01:25:44.509Z,2.80
2023-05-22T01:26:44.509Z,3.00
2023-05-22T01:27:44.499Z,2.90
2023-05-22T01:28:44.500Z,3.10
2023-05-22T01:29:44.512Z,3.00
2023-05-22T01:30:44.493Z,3.30
2023-05-22T01:31:44.486Z,2.80
2023-05-22T01:32:44.550Z,2.90
2023-05-22T01:33:44.589Z,2.90
2023-05-22T01:34:44.475Z,2.70
2023-05-22T01:35:44.472Z,3.00
2023-05-22T01:36:44.473Z,2.80
2023-05-22T01:37:44.464Z,2.80
2023-05-22T01:38:44.464Z,2.90
2023-05-22T01:39:44.464Z,2.90
2023-05-22T01:40:44.457Z,2.90
2023-05-22T01:41:44.451Z,2.60
2023-05-22T01:42:44.444Z,3.00
2023-05-22T01:43:44.454Z,3.30
2023-05-22T01:44:44.439Z,2.90
2023-05-22T01:45:44.469Z,2.80
2023-05-22T01:46:44.448Z,3.20
2023-05-22T01:47:44.462Z,2.90
2023-05-22T01:48:44.498Z,2.80
2023-05-22T01:49:44.430Z,2.60
2023-05-22T01:50:44.416Z,2.80
2023-05-22T01:51:44.417Z,2.80
2023-05-22T01:52:44.428Z,3.00
2023-05-22T01:53:44.420Z,2.90
2023-05-22T01:54:44.403Z,2.70
2023-05-22T01:55:44.399Z,3.20
2023-05-22T01:56:44.413Z,2.70
2023-05-22T01:57:44.391Z,2.80
2023-05-22T01:58:44.403Z,2.80
2023-05-22T01:59:44.394Z,3.00
2023-05-22T02:00:44.384Z,3.00
2023-05-22T02:01:44.436Z,3.00
2023-05-22T02:02:44.443Z,2.80
2023-05-22T02:03:44.425Z,2.70
2023-05-22T02:04:44.372Z,2.50
2023-05-22T02:05:44.361Z,2.70
2023-05-22T02:06:44.362Z,2.90
2023-05-22T02:07:44.359Z,2.80
2023-05-22T02:08:44.391Z,2.60
2023-05-22T02:09:44.347Z,2.90
2023-05-22T02:10:44.348Z,2.80
2023-05-22T02:11:44.337Z,2.80
2023-05-22T02:12:44.335Z,3.00
2023-05-22T02:13:44.329Z,2.80
2023-05-22T02:14:44.325Z,2.90
2023-05-22T02:15:44.361Z,2.90
2023-05-22T02:16:44.316Z,2.90
2023-05-22T02:17:44.336Z,2.70
2023-05-22T02:18:44.355Z,2.80
2023-05-22T02:19:44.305Z,2.80
2023-05-22T02:20:44.304Z,2.60
2023-05-22T02:21:44.301Z,2.70
2023-05-22T02:22:44.314Z,2.70
2023-05-22T02:23:44.292Z,2.60
2023-05-22T02:24:44.289Z,2.60
2023-05-22T02:25:44.291Z,2.60
2023-05-22T02:26:44.284Z,2.50
2023-05-22T02:27:44.275Z,2.60
2023-05-22T02:28:44.274Z,2.70
2023-05-22T02:29:44.275Z,2.60
2023-05-22T02:30:44.266Z,2.60
2023-05-22T02:31:44.296Z,2.60
2023-05-22T02:32:44.322Z,2.70
2023-05-22T02:33:44.250Z,2.60
2023-05-22T02:34:44.246Z,2.50
2023-05-22T02:35:44.247Z,2.60
2023-05-22T02:36:44.251Z,2.60
2023-05-22T02:37:44.254Z,2.60
2023-05-22T02:38:44.232Z,2.70
2023-05-22T02:39:44.234Z,2.90
2023-05-22T02:40:44.228Z,2.60
2023-05-22T02:41:44.219Z,2.50
2023-05-22T02:42:44.220Z,2.70
2023-05-22T02:43:44.260Z,2.50
2023-05-22T02:44:44.209Z,2.40
2023-05-22T02:45:44.201Z,2.60
2023-05-22T02:46:44.228Z,2.60
2023-05-22T02:47:44.222Z,2.60
2023-05-22T02:48:44.190Z,2.60
2023-05-22T02:49:44.189Z,2.60
2023-05-22T02:50:44.214Z,2.60
2023-05-22T02:51:44.202Z,2.60
2023-05-22T02:52:44.177Z,2.70
2023-05-22T02:53:44.189Z,2.60
2023-05-22T02:54:44.174Z,2.70
2023-05-22T02:55:44.165Z,2.70
2023-05-22T02:56:44.157Z,2.60
2023-05-22T02:57:44.154Z,2.70
2023-05-22T02:58:44.149Z,3.00
2023-05-22T02:59:44.144Z,2.80
2023-05-22T03:00:44.139Z,3.10
2023-05-22T03:01:44.178Z,2.70
2023-05-22T03:02:44.201Z,3.00
2023-05-22T03:03:44.246Z,3.00
2023-05-22T03:04:44.123Z,2.80
2023-05-22T03:05:44.121Z,3.00
2023-05-22T03:06:44.114Z,2.90
2023-05-22T03:07:45.932Z,2.70
2023-05-22T03:08:44.106Z,2.70
2023-05-22T03:09:44.102Z,2.80
2023-05-22T03:10:44.100Z,2.60
2023-05-22T03:11:44.097Z,2.50
2023-05-22T03:12:44.093Z,2.60
2023-05-22T03:13:44.093Z,2.80
2023-05-22T03:14:44.080Z,2.70
2023-05-22T03:15:44.078Z,2.50
2023-05-22T03:16:44.200Z,2.70
2023-05-22T03:17:44.101Z,2.60
2023-05-22T03:18:44.097Z,2.80
2023-05-22T03:19:44.060Z,2.90
2023-05-22T03:20:44.063Z,2.80
2023-05-22T03:21:44.061Z,2.60
2023-05-22T03:22:44.053Z,2.60
2023-05-22T03:23:44.056Z,2.70
2023-05-22T03:24:44.041Z,2.50
2023-05-22T03:25:44.040Z,2.70
2023-05-22T03:26:44.116Z,2.90
2023-05-22T03:27:44.035Z,2.80
2023-05-22T03:28:44.051Z,2.80
2023-05-22T03:29:44.018Z,2.60
2023-05-22T03:30:44.021Z,2.80
2023-05-22T03:31:44.010Z,2.60
2023-05-22T03:32:44.063Z,2.80
2023-05-22T03:33:44.035Z,2.80
2023-05-22T03:34:44.068Z,2.70
2023-05-22T03:35:43.993Z,2.80
2023-05-22T03:36:43.992Z,3.00
2023-05-22T03:37:43.986Z,3.00
2023-05-22T03:38:43.982Z,2.70
2023-05-22T03:39:43.978Z,2.90
2023-05-22T03:40:43.972Z,2.90
2023-05-22T03:41:44.016Z,2.80
2023-05-22T03:42:43.964Z,2.90
2023-05-22T03:43:44.978Z,3.00
2023-05-22T03:44:43.958Z,3.00
2023-05-22T03:45:43.996Z,2.80
2023-05-22T03:46:43.951Z,2.90
2023-05-22T03:47:43.954Z,3.10
2023-05-22T03:48:43.943Z,2.90
2023-05-22T03:49:43.937Z,3.00
2023-05-22T03:50:43.933Z,2.90
2023-05-22T03:51:43.928Z,2.80
2023-05-22T03:52:43.929Z,2.80
2023-05-22T03:53:43.918Z,3.00
2023-05-22T03:54:43.918Z,2.90
2023-05-22T03:55:43.909Z,3.30
2023-05-22T03:56:43.905Z,3.00
2023-05-22T03:57:43.901Z,3.50
2023-05-22T03:58:43.898Z,3.20
2023-05-22T03:59:43.899Z,3.00
2023-05-22T04:00:43.890Z,3.30
2023-05-22T04:01:43.896Z,3.30
2023-05-22T04:02:43.991Z,3.30
2023-05-22T04:03:43.933Z,3.30
2023-05-22T04:04:43.905Z,3.40
2023-05-22T04:05:43.873Z,3.40
2023-05-22T04:06:43.861Z,3.40
2023-05-22T04:07:43.857Z,3.20
2023-05-22T04:08:43.855Z,3.50
2023-05-22T04:09:43.856Z,3.60
2023-05-22T04:10:43.842Z,3.50
2023-05-22T04:11:43.836Z,3.40
2023-05-22T04:12:43.837Z,3.60
2023-05-22T04:13:43.835Z,3.60
2023-05-22T04:14:43.831Z,3.70
2023-05-22T04:15:43.843Z,3.50
2023-05-22T04:16:43.818Z,3.90
2023-05-22T04:17:43.876Z,4.00
2023-05-22T04:18:43.855Z,4.00
2023-05-22T04:19:43.808Z,3.80
2023-05-22T04:20:43.822Z,3.80
2023-05-22T04:21:43.793Z,4.30
2023-05-22T04:22:43.807Z,4.00
2023-05-22T04:23:43.799Z,4.00
2023-05-22T04:24:43.785Z,3.60
2023-05-22T04:25:43.781Z,3.90
2023-05-22T04:26:43.778Z,4.00
2023-05-22T04:27:43.768Z,4.10
2023-05-22T04:28:43.768Z,3.90
2023-05-22T04:29:43.764Z,3.80
2023-05-22T04:30:43.762Z,3.60
2023-05-22T04:31:43.777Z,3.40
2023-05-22T04:32:43.803Z,3.60
2023-05-22T04:33:43.748Z,3.60
2023-05-22T04:34:43.748Z,3.50
2023-05-22T04:35:43.741Z,3.50
2023-05-22T04:36:43.734Z,3.50
2023-05-22T04:37:43.733Z,3.90
2023-05-22T04:38:43.738Z,4.10
2023-05-22T04:39:43.901Z,4.00
2023-05-22T04:40:43.728Z,4.20
2023-05-22T04:41:43.717Z,4.70
2023-05-22T04:42:43.713Z,4.40
2023-05-22T04:43:43.710Z,4.50
2023-05-22T04:44:43.770Z,4.70
2023-05-22T04:45:43.951Z,4.60
2023-05-22T04:46:43.806Z,4.30
2023-05-22T04:47:43.749Z,4.40
2023-05-22T04:48:43.695Z,4.60
2023-05-22T04:49:43.742Z,4.70
2023-05-22T04:50:43.718Z,4.90
2023-05-22T04:51:43.679Z,5.20
2023-05-22T04:52:43.679Z,5.20
2023-05-22T04:53:43.736Z,5.50
2023-05-22T04:54:43.671Z,5.70
2023-05-22T04:55:43.679Z,5.40
2023-05-22T04:56:43.665Z,4.80
2023-05-22T04:57:43.660Z,4.80
2023-05-22T04:58:43.653Z,4.50
2023-05-22T04:59:43.654Z,4.40
2023-05-22T05:00:43.774Z,4.20
2023-05-22T05:01:43.710Z,4.20
2023-05-22T05:02:43.711Z,4.20
2023-05-22T05:03:43.653Z,3.90
2023-05-22T05:04:43.639Z,4.20
2023-05-22T05:05:43.632Z,4.10
2023-05-22T05:06:43.630Z,4.50
2023-05-22T05:07:43.620Z,4.20
2023-05-22T05:08:43.620Z,4.40
2023-05-22T05:09:43.618Z,4.50
2023-05-22T05:10:43.632Z,4.40
2023-05-22T05:11:43.612Z,4.60
2023-05-22T05:12:43.608Z,5.10
2023-05-22T05:13:43.604Z,4.90
2023-05-22T05:14:43.600Z,4.70
2023-05-22T05:15:43.599Z,4.80
2023-05-22T05:16:43.646Z,4.40
2023-05-22T05:17:43.728Z,4.80
2023-05-22T05:18:43.713Z,4.80
2023-05-22T05:19:43.581Z,4.80
2023-05-22T05:20:43.579Z,4.70
2023-05-22T05:21:43.579Z,5.00
2023-05-22T05:22:43.576Z,4.60
2023-05-22T05:23:43.572Z,4.40
2023-05-22T05:24:43.565Z,4.40
2023-05-22T05:25:43.563Z,4.70
2023-05-22T05:26:43.562Z,4.50
2023-05-22T05:27:43.558Z,4.80
2023-05-22T05:28:43.570Z,5.10
2023-05-22T05:29:43.559Z,5.20
2023-05-22T05:30:43.553Z,5.70
2023-05-22T05:31:43.610Z,5.40
2023-05-22T05:32:43.602Z,5.90
2023-05-22T05:33:43.561Z,6.40
2023-05-22T05:34:43.543Z,6.30
2023-05-22T05:35:43.536Z,7.10
2023-05-22T05:36:43.539Z,6.30
2023-05-22T05:37:43.536Z,7.60
2023-05-22T05:38:43.529Z,7.10
2023-05-22T05:39:43.526Z,6.80
2023-05-22T05:40:43.520Z,6.10
2023-05-22T05:41:43.521Z,6.80
2023-05-22T05:42:43.518Z,9.70
2023-05-22T05:43:43.516Z,8.00
2023-05-22T05:44:43.511Z,8.50
2023-05-22T05:45:43.550Z,9.10
2023-05-22T05:46:43.611Z,9.60
2023-05-22T05:47:43.593Z,8.40
2023-05-22T05:48:43.507Z,7.70
2023-05-22T05:49:43.507Z,7.60
2023-05-22T05:50:43.512Z,9.30
2023-05-22T05:51:43.499Z,7.10
2023-05-22T05:52:43.495Z,6.60
2023-05-22T05:53:43.495Z,7.00
2023-05-22T05:54:43.492Z,6.50
2023-05-22T05:55:43.488Z,5.80
2023-05-22T05:56:43.487Z,6.10
2023-05-22T05:57:43.485Z,6.50
2023-05-22T05:58:43.497Z,6.20
2023-05-22T05:59:43.486Z,6.40
2023-05-22T06:00:43.483Z,6.30
2023-05-22T06:01:43.479Z,5.90
2023-05-22T06:02:43.592Z,5.80
2023-05-22T06:03:43.611Z,4.90
2023-05-22T06:04:43.474Z,4.70
2023-05-22T06:05:43.540Z,4.80
2023-05-22T06:06:43.469Z,4.60
2023-05-22T06:07:43.480Z,4.60
2023-05-22T06:08:43.465Z,4.50
2023-05-22T06:09:43.465Z,4.40
2023-05-22T06:10:43.476Z,4.40
2023-05-22T06:11:43.460Z,4.30
2023-05-22T06:12:43.464Z,4.30
2023-05-22T06:13:43.468Z,4.40
2023-05-22T06:14:43.459Z,4.20
2023-05-22T06:15:43.455Z,4.40
2023-05-22T06:16:44.074Z,4.30
2023-05-22T06:17:43.503Z,4.20
2023-05-22T06:18:43.459Z,4.30
2023-05-22T06:19:43.451Z,4.20
2023-05-22T06:20:43.448Z,4.10
2023-05-22T06:21:43.441Z,4.20
2023-05-22T06:22:43.439Z,4.20
2023-05-22T06:23:43.438Z,4.30
2023-05-22T06:24:43.433Z,4.40
2023-05-22T06:25:43.432Z,4.60
2023-05-22T06:26:43.430Z,4.60
2023-05-22T06:27:43.443Z,4.30
2023-05-22T06:28:43.428Z,4.60
2023-05-22T06:29:43.425Z,5.00
2023-05-22T06:30:43.523Z,5.00
2023-05-22T06:31:43.665Z,4.70
2023-05-22T06:32:43.583Z,4.70
2023-05-22T06:33:43.682Z,4.70
2023-05-22T06:34:43.414Z,5.10
2023-05-22T06:35:43.414Z,5.10
2023-05-22T06:36:43.412Z,5.00
2023-05-22T06:37:43.479Z,5.40
2023-05-22T06:38:43.421Z,5.00
2023-05-22T06:39:43.410Z,4.80
2023-05-22T06:40:43.402Z,5.10
2023-05-22T06:41:43.401Z,4.80
2023-05-22T06:42:43.401Z,4.80
2023-05-22T06:43:43.394Z,4.80
2023-05-22T06:44:43.399Z,4.50
2023-05-22T06:45:43.474Z,4.60
2023-05-22T06:46:43.400Z,4.70
2023-05-22T06:47:43.420Z,4.80
2023-05-22T06:48:43.392Z,4.50
2023-05-22T06:49:43.402Z,4.50
2023-05-22T06:50:43.398Z,4.90
2023-05-22T06:51:43.395Z,4.60
2023-05-22T06:52:43.389Z,4.30
2023-05-22T06:53:43.405Z,4.60
2023-05-22T06:54:43.414Z,4.80
2023-05-22T06:55:43.399Z,4.80
2023-05-22T06:56:43.400Z,4.20
2023-05-22T06:57:43.392Z,4.60
2023-05-22T06:58:43.387Z,4.50
2023-05-22T06:59:43.389Z,4.40
2023-05-22T07:00:43.383Z,4.40
2023-05-22T07:01:43.450Z,4.50
2023-05-22T07:02:43.547Z,4.30
2023-05-22T07:03:43.390Z,4.40
2023-05-22T07:04:43.393Z,4.40
2023-05-22T07:05:43.439Z,4.50
2023-05-22T07:06:43.386Z,4.60
2023-05-22T07:07:43.381Z,4.40
2023-05-22T07:08:43.383Z,4.50
2023-05-22T07:09:43.550Z,4.40
2023-05-22T07:10:43.390Z,4.30
2023-05-22T07:11:43.381Z,4.30
2023-05-22T07:12:43.391Z,4.10
2023-05-22T07:13:43.388Z,4.10
2023-05-22T07:14:43.381Z,4.40
2023-05-22T07:15:45.123Z,4.10
2023-05-22T07:16:43.419Z,4.40
2023-05-22T07:17:43.469Z,4.30
2023-05-22T07:18:43.384Z,4.40
2023-05-22T07:19:43.386Z,4.30
2023-05-22T07:20:43.381Z,4.30
2023-05-22T07:21:43.381Z,4.30
2023-05-22T07:22:43.382Z,4.30
2023-05-22T07:23:43.382Z,4.50
2023-05-22T07:24:43.389Z,4.60
2023-05-22T07:25:43.417Z,4.70
2023-05-22T07:26:43.380Z,4.80
2023-05-22T07:27:43.378Z,4.70
2023-05-22T07:28:43.385Z,4.60
2023-05-22T07:29:43.397Z,4.70
2023-05-22T07:30:43.389Z,4.60
2023-05-22T07:31:43.424Z,4.80
2023-05-22T07:32:43.405Z,4.90
2023-05-22T07:33:43.386Z,5.10
2023-05-22T07:34:43.390Z,5.00
2023-05-22T07:35:43.388Z,5.10
2023-05-22T07:36:43.419Z,5.20
2023-05-22T07:37:43.391Z,4.80
2023-05-22T07:38:43.389Z,5.20
2023-05-22T07:39:43.393Z,5.20
2023-05-22T07:40:43.396Z,5.20
2023-05-22T07:41:43.557Z,5.10
2023-05-22T07:42:43.400Z,5.10
2023-05-22T07:43:43.398Z,5.10
2023-05-22T07:44:43.402Z,5.30
2023-05-22T07:45:43.452Z,5.40
2023-05-22T07:46:43.527Z,5.20
2023-05-22T07:47:43.440Z,5.30
2023-05-22T07:48:43.407Z,5.00
2023-05-22T07:49:43.426Z,5.10
2023-05-22T07:50:43.411Z,4.80
2023-05-22T07:51:43.406Z,4.60
2023-05-22T07:52:43.408Z,4.80
2023-05-22T07:53:43.414Z,5.00
2023-05-22T07:54:45.199Z,4.90
2023-05-22T07:55:43.437Z,5.10
2023-05-22T07:56:43.417Z,4.90
2023-05-22T07:57:43.532Z,4.60
2023-05-22T07:58:43.422Z,4.90
2023-05-22T07:59:43.426Z,4.60
2023-05-22T08:00:43.432Z,4.50
2023-05-22T08:01:43.429Z,4.90
2023-05-22T08:02:43.644Z,4.80
2023-05-22T08:03:43.567Z,5.00
2023-05-22T08:04:43.451Z,5.00
2023-05-22T08:05:43.438Z,5.00
2023-05-22T08:06:43.445Z,5.10
2023-05-22T08:07:43.443Z,5.20
2023-05-22T08:08:43.450Z,5.10
2023-05-22T08:09:43.447Z,5.30
2023-05-22T08:10:58.109Z,5.00
2023-05-22T08:11:43.451Z,5.00
2023-05-22T08:12:43.464Z,5.30
2023-05-22T08:13:43.496Z,5.00
2023-05-22T08:14:43.460Z,5.20
2023-05-22T08:15:43.465Z,5.00
2023-05-22T08:16:43.478Z,4.60
2023-05-22T08:17:43.501Z,4.60
2023-05-22T08:18:43.477Z,4.80
2023-05-22T08:19:43.547Z,4.70
2023-05-22T08:20:43.471Z,4.70
2023-05-22T08:21:43.475Z,4.20
2023-05-22T08:22:43.481Z,4.30
2023-05-22T08:23:43.476Z,3.90
2023-05-22T08:24:43.491Z,4.30
2023-05-22T08:25:43.485Z,4.30
2023-05-22T08:26:43.551Z,4.80
2023-05-22T08:27:43.490Z,4.90
2023-05-22T08:28:43.527Z,4.90
2023-05-22T08:29:43.495Z,4.70
2023-05-22T08:30:43.488Z,4.60
2023-05-22T08:31:43.595Z,4.10
2023-05-22T08:32:43.536Z,4.40
2023-05-22T08:33:43.496Z,4.60
2023-05-22T08:34:43.498Z,4.90
2023-05-22T08:35:43.496Z,4.60
2023-05-22T08:36:43.501Z,4.70
2023-05-22T08:37:43.498Z,4.60
2023-05-22T08:38:43.499Z,4.60
2023-05-22T08:39:43.503Z,4.70
2023-05-22T08:40:46.210Z,4.90
2023-05-22T08:41:43.504Z,4.50
2023-05-22T08:42:43.512Z,4.50
2023-05-22T08:43:43.512Z,4.30
2023-05-22T08:44:43.505Z,4.20
2023-05-22T08:45:43.593Z,4.00
2023-05-22T08:46:43.535Z,3.90
2023-05-22T08:47:43.549Z,3.80
2023-05-22T08:48:43.513Z,3.70
2023-05-22T08:49:43.512Z,3.70
2023-05-22T08:50:43.520Z,3.60
2023-05-22T08:51:43.511Z,3.50
2023-05-22T08:52:43.511Z,3.70
2023-05-22T08:53:43.589Z,3.40
2023-05-22T08:54:43.512Z,3.50
2023-05-22T08:55:43.519Z,3.50
2023-05-22T08:56:55.755Z,3.30
2023-05-22T08:57:43.519Z,3.50
2023-05-22T08:58:43.518Z,3.50
2023-05-22T08:59:43.518Z,3.40
2023-05-22T09:00:43.596Z,3.40
2023-05-22T09:01:43.852Z,3.50
2023-05-22T09:02:43.537Z,3.50
2023-05-22T09:03:43.573Z,3.20
2023-05-22T09:04:43.524Z,3.40
2023-05-22T09:05:43.528Z,3.20
2023-05-22T09:06:43.536Z,3.20
2023-05-22T09:07:43.529Z,3.20
2023-05-22T09:08:43.530Z,3.40
2023-05-22T09:09:43.544Z,3.40
2023-05-22T09:10:43.531Z,3.20
2023-05-22T09:11:43.526Z,3.40
2023-05-22T09:12:43.537Z,3.20
2023-05-22T09:13:43.586Z,3.20
2023-05-22T09:14:43.534Z,3.30
2023-05-22T09:15:43.537Z,3.10
2023-05-22T09:16:43.576Z,3.30
2023-05-22T09:17:43.595Z,3.20
2023-05-22T09:18:43.538Z,3.10
2023-05-22T09:19:43.571Z,3.00
2023-05-22T09:20:43.581Z,3.20
2023-05-22T09:21:43.558Z,3.10
2023-05-22T09:22:43.547Z,3.40
2023-05-22T09:23:43.558Z,3.20
2023-05-22T09:24:43.533Z,3.00
2023-05-22T09:25:43.538Z,3.00
2023-05-22T09:26:43.543Z,3.30
2023-05-22T09:27:43.544Z,3.20
2023-05-22T09:28:43.544Z,3.20
2023-05-22T09:29:43.542Z,3.00
2023-05-22T09:30:43.762Z,3.00
2023-05-22T09:31:43.901Z,3.20
2023-05-22T09:32:43.598Z,3.40
2023-05-22T09:33:43.550Z,3.20
2023-05-22T09:34:43.550Z,3.10
2023-05-22T09:35:43.546Z,2.90
2023-05-22T09:36:43.546Z,3.20
2023-05-22T09:37:43.562Z,3.30
2023-05-22T09:38:43.551Z,2.90
2023-05-22T09:39:43.560Z,3.30
2023-05-22T09:40:43.551Z,3.00
2023-05-22T09:41:43.551Z,3.10
2023-05-22T09:42:43.553Z,2.90
2023-05-22T09:43:43.557Z,3.10
2023-05-22T09:44:43.551Z,2.90
2023-05-22T09:45:43.554Z,2.90
2023-05-22T09:46:43.681Z,2.90
2023-05-22T09:47:43.585Z,3.10
2023-05-22T09:48:43.553Z,2.80
2023-05-22T09:49:43.553Z,2.80
2023-05-22T09:50:43.556Z,3.00
2023-05-22T09:51:43.553Z,2.80
2023-05-22T09:52:43.560Z,3.00
2023-05-22T09:53:43.557Z,2.90
2023-05-22T09:54:43.560Z,2.80
2023-05-22T09:55:43.556Z,3.20
2023-05-22T09:56:43.569Z,3.00
2023-05-22T09:57:43.559Z,3.00
2023-05-22T09:58:43.559Z,3.00
2023-05-22T09:59:43.562Z,3.00
2023-05-22T10:00:43.560Z,2.90
2023-05-22T10:01:43.586Z,2.90
2023-05-22T10:02:43.583Z,3.10
2023-05-22T10:03:43.560Z,2.90
2023-05-22T10:04:43.622Z,2.90
2023-05-22T10:05:43.669Z,2.90
2023-05-22T10:06:43.561Z,2.70
2023-05-22T10:07:43.564Z,2.80
2023-05-22T10:08:43.564Z,3.20
2023-05-22T10:09:43.560Z,3.10
2023-05-22T10:10:43.588Z,2.70
2023-05-22T10:11:43.564Z,2.90
2023-05-22T10:12:43.593Z,2.90
2023-05-22T10:13:43.563Z,3.10
2023-05-22T10:14:43.566Z,2.90
2023-05-22T10:15:43.596Z,3.00
2023-05-22T10:16:43.607Z,2.90
2023-05-22T10:17:43.579Z,3.00
2023-05-22T10:18:43.571Z,3.20
2023-05-22T10:19:44.686Z,2.80
2023-05-22T10:20:43.569Z,3.00
2023-05-22T10:21:43.669Z,3.10
2023-05-22T10:22:43.572Z,2.80
2023-05-22T10:23:43.570Z,2.80
2023-05-22T10:24:43.576Z,2.70
2023-05-22T10:25:43.572Z,2.80
2023-05-22T10:26:43.569Z,3.10
2023-05-22T10:27:43.572Z,2.80
2023-05-22T10:28:43.574Z,2.80
2023-05-22T10:29:43.570Z,2.90
2023-05-22T10:30:43.659Z,2.70
2023-05-22T10:31:43.573Z,2.90
2023-05-22T10:32:43.589Z,2.80
2023-05-22T10:33:43.606Z,2.80
2023-05-22T10:34:43.608Z,3.00
2023-05-22T10:35:43.596Z,2.80
2023-05-22T10:36:43.725Z,3.00
2023-05-22T10:37:43.657Z,3.10
2023-05-22T10:38:43.570Z,3.10
2023-05-22T10:39:43.681Z,3.00
2023-05-22T10:40:43.644Z,2.90
2023-05-22T10:41:43.574Z,2.70
2023-05-22T10:42:43.581Z,2.80
2023-05-22T10:43:43.575Z,2.80
2023-05-22T10:44:43.581Z,2.80
2023-05-22T10:45:45.280Z,3.00
2023-05-22T10:46:43.586Z,2.70
2023-05-22T10:47:43.583Z,2.70
2023-05-22T10:48:43.578Z,2.90
2023-05-22T10:49:43.687Z,2.90
2023-05-22T10:50:43.580Z,2.90
2023-05-22T10:51:43.579Z,2.70
2023-05-22T10:52:43.581Z,2.80
2023-05-22T10:53:43.671Z,2.60
2023-05-22T10:54:43.587Z,2.50
2023-05-22T10:55:43.583Z,2.50
2023-05-22T10:56:43.584Z,2.50
2023-05-22T10:57:43.584Z,2.70
2023-05-22T10:58:43.589Z,2.40
2023-05-22T10:59:43.592Z,2.60
2023-05-22T11:00:43.585Z,2.70
2023-05-22T11:01:43.603Z,2.90
2023-05-22T11:02:43.712Z,2.60
2023-05-22T11:03:43.653Z,2.90
2023-05-22T11:04:43.610Z,2.80
2023-05-22T11:05:43.588Z,2.70
2023-05-22T11:06:43.620Z,2.60
2023-05-22T11:07:43.598Z,2.70
2023-05-22T11:08:43.591Z,2.70
2023-05-22T11:09:43.683Z,2.70
2023-05-22T11:10:43.586Z,2.60
2023-05-22T11:11:43.591Z,2.70
2023-05-22T11:12:43.593Z,2.70
2023-05-22T11:13:43.607Z,2.60
2023-05-22T11:14:43.594Z,2.80
2023-05-22T11:15:43.598Z,2.60
2023-05-22T11:16:43.736Z,2.70
2023-05-22T11:17:43.654Z,2.60
2023-05-22T11:18:45.214Z,2.60
2023-05-22T11:19:43.615Z,2.70
2023-05-22T11:20:43.602Z,2.80
2023-05-22T11:21:43.598Z,2.70
2023-05-22T11:22:43.596Z,2.60
2023-05-22T11:23:43.601Z,2.70
2023-05-22T11:24:43.597Z,2.80
2023-05-22T11:25:43.683Z,2.60
2023-05-22T11:26:43.599Z,2.50
2023-05-22T11:27:43.605Z,2.60
2023-05-22T11:28:43.598Z,2.70
2023-05-22T11:29:43.600Z,2.90
2023-05-22T11:30:43.624Z,2.50
2023-05-22T11:31:43.677Z,2.70
2023-05-22T11:32:43.612Z,2.60
2023-05-22T11:33:43.604Z,2.70
2023-05-22T11:34:43.601Z,2.50
2023-05-22T11:35:43.603Z,2.70
2023-05-22T11:36:43.607Z,2.70
2023-05-22T11:37:43.616Z,2.60
2023-05-22T11:38:43.606Z,2.70
2023-05-22T11:39:43.605Z,2.70
2023-05-22T11:40:43.615Z,2.50
2023-05-22T11:41:43.690Z,2.70
2023-05-22T11:42:43.630Z,2.60
2023-05-22T11:43:43.608Z,2.40
2023-05-22T11:44:43.607Z,2.60
2023-05-22T11:45:43.618Z,2.50
2023-05-22T11:46:43.640Z,2.50
2023-05-22T11:47:43.688Z,2.40
2023-05-22T11:48:43.644Z,2.50
2023-05-22T11:49:43.609Z,2.60
2023-05-22T11:50:43.919Z,2.60
2023-05-22T11:51:43.611Z,2.40
2023-05-22T11:52:43.630Z,2.40
2023-05-22T11:53:43.609Z,2.40
2023-05-22T11:54:43.622Z,2.50
2023-05-22T11:55:43.610Z,2.50
2023-05-22T11:57:43.702Z,2.70
2023-05-22T11:58:43.603Z,2.50
2023-05-22T11:59:43.610Z,2.50
2023-05-22T12:00:43.665Z,2.40
2023-05-22T12:01:43.623Z,2.30
2023-05-22T12:02:43.667Z,2.50
2023-05-22T12:03:43.660Z,2.50
2023-05-22T12:04:43.613Z,2.30
2023-05-22T12:05:43.611Z,2.40
2023-05-22T12:06:43.671Z,2.40
2023-05-22T12:07:43.625Z,2.50
2023-05-22T12:08:43.606Z,2.40
2023-05-22T12:09:43.612Z,2.40
2023-05-22T12:10:43.611Z,2.30
2023-05-22T12:11:43.614Z,2.30
2023-05-22T12:12:43.630Z,2.50
2023-05-22T12:13:43.612Z,2.50
2023-05-22T12:14:43.614Z,2.30
2023-05-22T12:15:43.689Z,2.30
2023-05-22T12:16:43.624Z,2.30
2023-05-22T12:17:43.687Z,2.40
2023-05-22T12:18:43.620Z,2.30
2023-05-22T12:19:43.615Z,2.30
2023-05-22T12:20:43.616Z,2.40
2023-05-22T12:21:43.618Z,2.30
2023-05-22T12:22:43.718Z,2.30
2023-05-22T12:23:43.622Z,2.40
2023-05-22T12:24:43.618Z,2.30
2023-05-22T12:25:43.626Z,2.30
2023-05-22T12:26:43.673Z,2.40
2023-05-22T12:27:43.636Z,2.40
2023-05-22T12:28:43.625Z,2.30
2023-05-22T12:29:43.739Z,2.20
2023-05-22T12:30:43.633Z,2.60
2023-05-22T12:31:43.633Z,2.30
2023-05-22T12:32:43.640Z,2.30
2023-05-22T12:33:43.632Z,2.20
2023-05-22T12:34:43.632Z,2.20
2023-05-22T12:35:43.629Z,2.40
2023-05-22T12:36:43.638Z,2.40
2023-05-22T12:37:43.634Z,2.40
2023-05-22T12:38:43.652Z,2.30
2023-05-22T12:39:43.636Z,2.60
2023-05-22T12:40:43.641Z,2.40
2023-05-22T12:41:43.653Z,2.20
2023-05-22T12:42:43.639Z,2.20
2023-05-22T12:43:43.639Z,2.20
2023-05-22T12:44:43.690Z,2.60
2023-05-22T12:45:43.745Z,2.20
2023-05-22T12:46:43.669Z,2.40
2023-05-22T12:47:43.717Z,2.40
2023-05-22T12:48:43.644Z,2.30
2023-05-22T12:49:43.652Z,2.10
2023-05-22T12:50:43.650Z,2.20
2023-05-22T12:51:43.648Z,2.40
2023-05-22T12:52:43.653Z,2.50
2023-05-22T12:53:43.647Z,2.50
2023-05-22T12:54:43.651Z,2.30
2023-05-22T12:55:43.660Z,2.40
2023-05-22T12:56:43.651Z,2.30
2023-05-22T12:57:43.657Z,2.30
2023-05-22T12:58:43.661Z,2.40
2023-05-22T12:59:43.664Z,2.30
2023-05-22T13:00:43.656Z,2.30
2023-05-22T13:01:43.784Z,2.30
2023-05-22T13:02:43.679Z,2.10
2023-05-22T13:03:43.658Z,2.10
2023-05-22T13:04:43.685Z,2.10
2023-05-22T13:05:43.658Z,2.30
2023-05-22T13:06:43.669Z,2.50
2023-05-22T13:07:43.660Z,2.20
2023-05-22T13:08:43.657Z,2.20
2023-05-22T13:09:43.662Z,2.30
2023-05-22T13:10:43.663Z,2.60
2023-05-22T13:11:43.673Z,2.40
2023-05-22T13:12:43.659Z,2.30
2023-05-22T13:13:43.665Z,2.50
2023-05-22T13:14:43.674Z,2.30
2023-05-22T13:15:43.733Z,2.20
2023-05-22T13:16:43.737Z,2.50
2023-05-22T13:17:43.786Z,2.40
2023-05-22T13:18:43.670Z,2.20
2023-05-22T13:19:43.665Z,2.30